createdAt,value
2022-11-06T00:03:27.491Z,89.85
2022-11-06T00:08:38.167Z,89.51
2022-11-06T00:13:40.252Z,90.33
2022-11-06T00:18:42.331Z,90.00
2022-11-06T00:23:44.674Z,90.05
2022-11-06T00:28:46.152Z,89.95
2022-11-06T00:33:47.971Z,90.30
2022-11-06T00:38:53.373Z,90.27
2022-11-06T00:43:58.109Z,89.84
2022-11-06T00:48:59.667Z,89.37
2022-11-06T00:54:06.386Z,89.88
2022-11-06T00:59:10.453Z,89.39
2022-11-06T01:04:14.576Z,89.63
2022-11-06T01:09:18.977Z,89.36
2022-11-06T01:14:22.129Z,89.28
2022-11-06T01:19:23.886Z,89.25
2022-11-06T01:24:27.453Z,88.91
2022-11-06T01:29:29.156Z,88.66
2022-11-06T01:34:30.746Z,89.03
2022-11-06T01:39:32.305Z,88.91
2022-11-06T01:44:33.709Z,89.63
2022-11-06T01:49:37.903Z,89.61
2022-11-06T01:54:41.076Z,89.28
2022-11-06T01:59:44.362Z,89.09
2022-11-06T02:04:49.064Z,89.66
2022-11-06T02:09:50.576Z,89.55
2022-11-06T02:15:13.289Z,89.24
2022-11-06T02:20:26.571Z,89.17
2022-11-06T02:26:04.614Z,89.15
2022-11-06T02:31:11.356Z,88.63
2022-11-06T02:36:17.363Z,88.69
2022-11-06T02:41:23.041Z,88.91
2022-11-06T02:46:34.733Z,88.61
2022-11-06T02:51:43.822Z,88.83
2022-11-06T02:56:46.459Z,88.61
2022-11-06T03:02:09.103Z,89.01
2022-11-06T03:07:25.375Z,88.74
2022-11-06T03:12:32.652Z,88.48
2022-11-06T03:17:44.839Z,88.00
2022-11-06T03:22:49.020Z,87.74
2022-11-06T03:27:59.535Z,88.15
2022-11-06T03:33:38.382Z,87.58
2022-11-06T03:38:52.046Z,87.70
2022-11-06T03:43:56.508Z,87.42
2022-11-06T03:49:04.041Z,87.73
2022-11-06T03:54:14.260Z,87.12
2022-11-06T03:59:19.175Z,87.06
2022-11-06T04:04:34.050Z,87.68
2022-11-06T04:09:56.757Z,89.26
2022-11-06T04:14:59.308Z,87.67
2022-11-06T04:20:03.445Z,87.79
2022-11-06T04:25:40.635Z,88.48
2022-11-06T04:30:49.812Z,87.32
2022-11-06T04:36:02.241Z,87.89
2022-11-06T04:41:34.579Z,87.26
2022-11-06T04:46:45.615Z,87.15
2022-11-06T04:51:47.530Z,87.56
2022-11-06T04:56:49.116Z,87.46
2022-11-06T05:01:50.851Z,87.23
2022-11-06T05:06:52.498Z,87.69
2022-11-06T05:11:54.072Z,87.68
2022-11-06T05:16:55.547Z,87.17
2022-11-06T05:22:15.724Z,87.22
2022-11-06T05:27:17.246Z,87.44
2022-11-06T05:32:18.791Z,87.83
2022-11-06T05:37:20.343Z,87.43
2022-11-06T05:42:22.006Z,87.47
2022-11-06T05:47:23.505Z,87.45
2022-11-06T05:52:25.111Z,88.23
2022-11-06T05:57:26.621Z,87.54
2022-11-06T06:02:28.274Z,87.81
2022-11-06T06:07:30.083Z,88.43
2022-11-06T06:12:31.624Z,87.90
2022-11-06T06:17:33.415Z,88.45
2022-11-06T06:22:36.079Z,88.99
2022-11-06T06:27:37.766Z,88.97
2022-11-06T06:32:39.319Z,88.69
2022-11-06T06:37:40.881Z,88.39
2022-11-06T06:42:42.387Z,88.35
2022-11-06T06:47:43.936Z,88.42
2022-11-06T06:52:45.560Z,88.34
2022-11-06T06:57:47.049Z,87.89
2022-11-06T07:02:48.554Z,88.02
2022-11-06T07:07:50.071Z,89.12
2022-11-06T07:12:51.581Z,88.90
2022-11-06T07:17:53.137Z,88.50
2022-11-06T07:22:54.630Z,87.55
2022-11-06T07:28:02.789Z,88.03
2022-11-06T07:33:05.577Z,89.11
2022-11-06T07:38:07.447Z,88.51
2022-11-06T07:43:10.758Z,88.11
2022-11-06T07:48:12.497Z,88.79
2022-11-06T07:53:14.490Z,89.05
2022-11-06T07:58:16.829Z,88.07
2022-11-06T08:03:19.082Z,87.97
2022-11-06T08:08:20.611Z,89.58
2022-11-06T08:13:22.206Z,88.80
2022-11-06T08:18:23.745Z,89.23
2022-11-06T08:23:25.446Z,89.49
2022-11-06T08:28:27.725Z,89.21
2022-11-06T08:33:29.226Z,89.21
2022-11-06T08:38:31.023Z,89.38
2022-11-06T08:43:32.556Z,89.52
2022-11-06T08:48:34.156Z,88.70
2022-11-06T08:53:35.701Z,89.19
2022-11-06T08:58:37.278Z,89.18
2022-11-06T09:03:38.752Z,88.60
2022-11-06T09:08:40.241Z,88.63
2022-11-06T09:13:42.022Z,89.20
2022-11-06T09:18:44.033Z,88.56
2022-11-06T09:23:47.056Z,88.34
2022-11-06T09:28:48.629Z,88.16
2022-11-06T09:33:50.999Z,88.47
2022-11-06T09:38:52.528Z,88.67
2022-11-06T09:44:10.714Z,88.17
2022-11-06T09:49:18.193Z,87.72
2022-11-06T09:54:20.198Z,87.51
2022-11-06T09:59:22.119Z,87.60
2022-11-06T10:04:41.219Z,86.99
2022-11-06T10:09:42.780Z,86.84
2022-11-06T10:14:56.721Z,86.71
2022-11-06T10:20:12.594Z,86.00
2022-11-06T10:25:19.835Z,85.84
2022-11-06T10:30:21.505Z,84.81
2022-11-06T10:35:26.397Z,84.44
2022-11-06T10:40:30.306Z,84.18
2022-11-06T10:45:32.404Z,83.68
2022-11-06T10:50:43.124Z,83.36
2022-11-06T10:55:44.571Z,82.68
2022-11-06T11:00:46.199Z,81.95
2022-11-06T11:05:47.815Z,82.17
2022-11-06T11:11:04.286Z,81.84
2022-11-06T11:16:13.511Z,76.21
2022-11-06T11:21:27.914Z,74.39
2022-11-06T11:26:31.005Z,73.72
2022-11-06T11:31:35.579Z,74.75
2022-11-06T11:36:52.381Z,73.93
2022-11-06T11:41:54.281Z,74.02
2022-11-06T11:46:55.753Z,75.65
2022-11-06T11:52:02.381Z,72.98
2022-11-06T11:57:07.743Z,73.64
2022-11-06T12:02:27.391Z,68.29
2022-11-06T12:07:35.353Z,67.98
2022-11-06T12:12:36.963Z,66.01
2022-11-06T12:17:39.619Z,67.86
2022-11-06T12:22:44.750Z,65.19
2022-11-06T12:27:55.313Z,65.53
2022-11-06T12:33:11.439Z,64.97
2022-11-06T12:38:31.921Z,64.49
2022-11-06T12:43:39.055Z,63.75
2022-11-06T12:48:53.061Z,63.58
2022-11-06T12:53:59.760Z,63.65
2022-11-06T12:59:09.959Z,64.43
2022-11-06T13:04:21.416Z,63.19
2022-11-06T13:09:30.929Z,64.00
2022-11-06T13:14:34.430Z,62.97
2022-11-06T13:19:48.258Z,62.75
2022-11-06T13:25:17.108Z,62.69
2022-11-06T13:30:20.841Z,63.75
2022-11-06T13:35:23.084Z,66.66
2022-11-06T13:40:36.100Z,64.04
2022-11-06T13:45:49.184Z,63.73
2022-11-06T13:51:01.711Z,63.83
2022-11-06T13:56:03.223Z,63.44
2022-11-06T14:01:23.668Z,63.91
2022-11-06T14:06:27.309Z,63.81
2022-11-06T14:11:31.938Z,64.89
2022-11-06T14:16:38.140Z,66.00
2022-11-06T14:21:39.526Z,68.72
2022-11-06T14:26:41.737Z,70.19
2022-11-06T14:32:00.344Z,70.88
2022-11-06T14:37:20.247Z,71.85
2022-11-06T14:42:27.272Z,72.20
2022-11-06T14:47:41.869Z,72.72
2022-11-06T14:52:52.500Z,73.57
2022-11-06T14:57:55.090Z,75.34
2022-11-06T15:02:56.613Z,76.87
2022-11-06T15:08:05.059Z,76.79
2022-11-06T15:13:22.834Z,77.37
2022-11-06T15:18:25.415Z,77.35
2022-11-06T15:23:53.180Z,77.73
2022-11-06T15:29:17.177Z,77.57
2022-11-06T15:34:30.609Z,78.23
2022-11-06T15:39:39.246Z,78.82
2022-11-06T15:44:42.234Z,79.33
2022-11-06T15:49:43.718Z,79.71
2022-11-06T15:54:45.466Z,80.18
2022-11-06T15:59:47.040Z,80.08
2022-11-06T16:04:49.296Z,80.81
2022-11-06T16:09:51.725Z,80.52
2022-11-06T16:14:53.351Z,80.91
2022-11-06T16:19:57.312Z,81.42
2022-11-06T16:25:02.060Z,81.73
2022-11-06T16:30:04.780Z,82.02
2022-11-06T16:35:35.699Z,82.22
2022-11-06T16:40:50.403Z,82.92
2022-11-06T16:46:08.023Z,83.25
2022-11-06T16:51:12.021Z,83.08
2022-11-06T16:56:14.141Z,83.68
2022-11-06T17:01:20.447Z,84.40
2022-11-06T17:06:28.322Z,84.15
2022-11-06T17:11:29.858Z,84.68
2022-11-06T17:16:45.018Z,84.78
2022-11-06T17:21:47.687Z,84.77
2022-11-06T17:26:53.126Z,85.38
2022-11-06T17:31:55.798Z,85.38
2022-11-06T17:36:57.354Z,86.03
2022-11-06T17:41:58.861Z,86.07
2022-11-06T17:47:00.415Z,86.31
2022-11-06T17:52:01.922Z,86.46
2022-11-06T17:57:05.379Z,86.64
2022-11-06T18:02:07.452Z,86.49
2022-11-06T18:07:09.544Z,86.71
2022-11-06T18:12:13.834Z,87.00
2022-11-06T18:17:15.387Z,87.03
2022-11-06T18:22:16.930Z,87.96
2022-11-06T18:27:18.446Z,87.33
2022-11-06T18:32:19.976Z,88.33
2022-11-06T18:37:21.530Z,88.28
2022-11-06T18:42:23.005Z,88.70
2022-11-06T18:47:24.527Z,88.86
2022-11-06T18:52:51.677Z,88.58
2022-11-06T18:57:47.520Z,88.84
2022-11-06T19:02:49.269Z,88.76
2022-11-06T19:07:55.003Z,88.72
2022-11-06T19:12:59.807Z,88.73
2022-11-06T19:18:01.467Z,88.04
2022-11-06T19:23:03.005Z,88.03
2022-11-06T19:28:04.838Z,87.92
2022-11-06T19:33:06.416Z,87.53
2022-11-06T19:38:07.926Z,87.50
2022-11-06T19:43:09.578Z,87.55
2022-11-06T19:48:11.110Z,87.49
2022-11-06T19:53:16.757Z,87.38
2022-11-06T19:58:19.679Z,87.69
2022-11-06T20:03:21.341Z,87.05
2022-11-06T20:08:22.904Z,87.22
2022-11-06T20:13:24.472Z,86.53
2022-11-06T20:18:25.983Z,86.79
2022-11-06T20:23:28.723Z,86.22
2022-11-06T20:28:30.470Z,85.87
2022-11-06T20:33:32.043Z,85.76
2022-11-06T20:38:33.546Z,85.83
2022-11-06T20:43:35.092Z,85.25
2022-11-06T20:48:37.380Z,85.09
2022-11-06T20:53:39.345Z,84.98
2022-11-06T20:58:41.073Z,85.17
2022-11-06T21:03:42.691Z,85.22
2022-11-06T21:08:44.759Z,85.00
2022-11-06T21:13:50.166Z,85.74
2022-11-06T21:18:52.454Z,85.27
2022-11-06T21:23:55.292Z,84.80
2022-11-06T21:28:57.345Z,85.14
2022-11-06T21:34:01.322Z,84.74
2022-11-06T21:39:06.507Z,85.62
2022-11-06T21:44:11.636Z,85.76
2022-11-06T21:49:13.741Z,85.46
2022-11-06T21:54:33.996Z,84.76
2022-11-06T21:59:40.474Z,84.88
2022-11-06T22:04:43.071Z,85.77
2022-11-06T22:09:44.598Z,85.25
2022-11-06T22:14:46.135Z,84.90
2022-11-06T22:19:47.750Z,84.13
2022-11-06T22:24:49.279Z,84.01
2022-11-06T22:29:50.805Z,83.78
2022-11-06T22:34:52.466Z,83.23
2022-11-06T22:39:53.990Z,82.90
2022-11-06T22:44:55.527Z,82.31
2022-11-06T22:49:57.166Z,82.29
2022-11-06T22:54:58.668Z,82.20
2022-11-06T23:00:00.174Z,82.24
2022-11-06T23:05:01.639Z,82.31
2022-11-06T23:10:03.644Z,82.50
2022-11-06T23:15:05.844Z,82.38
2022-11-06T23:20:07.762Z,82.00
2022-11-06T23:25:10.183Z,82.12
2022-11-06T23:30:12.978Z,81.77
2022-11-06T23:35:16.881Z,81.80
2022-11-06T23:40:18.792Z,81.66
2022-11-06T23:45:39.278Z,81.61
2022-11-06T23:50:41.515Z,81.78
2022-11-06T23:55:43.005Z,81.06
